Hanford, California
Current Conditions -  °F | °C
As of 9:53 PM on Monday 20 Oct 2014 (Local Time) from KHJO Reporting Station
Clear Clear  
Wind Chill: 65°   Ceiling: Unl
Heat Index: 65°   Visibility: 10mi
Dew Point: 51°   Wind: 17mph
Humidity: 61%   Direction: 330°NNW
Pressure: 29.98"   Gusts: NA
Location:  36.33°N, 119.64°W
Report Text: KHJO 210453Z AUTO 33015KT 10SM CLR 18/11 A2998 RMK AO2 RAE0357 SLP153 P0000 T01830106
Loading
Personal Weather Stations






























Interactive Weather Map
Tropical Storm Tracking
New forecast layout! Learn more

10-Day Weather Forecast

Advertisements
Track Severe Weather on mobile